createdAt,value
2022-10-05T00:02:38.454Z,99085.31
2022-10-05T00:05:41.305Z,99096.97
2022-10-05T00:08:44.341Z,99091.19
2022-10-05T00:11:48.806Z,99096.94
2022-10-05T00:14:54.463Z,99084.81
2022-10-05T00:17:57.054Z,99083.22
2022-10-05T00:20:59.684Z,99081.59
2022-10-05T00:24:02.699Z,99093.41
2022-10-05T00:27:16.049Z,99088.84
2022-10-05T00:30:20.491Z,99083.63
2022-10-05T00:33:23.230Z,99078.56
2022-10-05T00:36:26.172Z,99082.06
2022-10-05T00:39:29.976Z,99077.75
2022-10-05T00:42:40.109Z,99072.31
2022-10-05T00:45:46.405Z,99082.19
2022-10-05T00:48:56.618Z,99079.13
2022-10-05T00:52:05.476Z,99078.50
2022-10-05T00:55:13.085Z,99070.84
2022-10-05T00:58:23.290Z,99079.22
2022-10-05T01:01:29.647Z,99073.56
2022-10-05T01:04:38.115Z,99070.94
2022-10-05T01:07:44.206Z,99085.47
2022-10-05T01:10:50.066Z,99083.13
2022-10-05T01:13:58.349Z,99080.19
2022-10-05T01:17:05.045Z,99073.94
2022-10-05T01:20:25.022Z,99072.22
2022-10-05T01:23:59.275Z,99071.44
2022-10-05T01:27:11.090Z,99075.13
2022-10-05T01:30:17.547Z,99067.75
2022-10-05T01:33:25.469Z,99057.88
2022-10-05T01:36:32.368Z,99054.84
2022-10-05T01:39:41.063Z,99064.91
2022-10-05T01:42:52.808Z,99056.22
2022-10-05T01:46:03.473Z,99065.41
2022-10-05T01:49:17.746Z,99063.88
2022-10-05T01:52:29.823Z,99058.59
2022-10-05T01:55:36.211Z,99061.63
2022-10-05T01:58:42.961Z,99055.28
2022-10-05T02:01:50.264Z,99050.28
2022-10-05T02:05:02.083Z,99049.06
2022-10-05T02:08:09.190Z,99055.00
2022-10-05T02:11:14.587Z,99054.13
2022-10-05T02:14:20.440Z,99050.63
2022-10-05T02:17:27.413Z,99041.84
2022-10-05T02:20:33.286Z,99046.91
2022-10-05T02:23:37.974Z,99046.31
2022-10-05T02:26:41.345Z,99038.28
2022-10-05T02:29:46.821Z,99036.75
2022-10-05T02:32:56.529Z,99030.78
2022-10-05T02:36:02.687Z,99026.31
2022-10-05T02:39:11.282Z,99035.47
2022-10-05T02:42:17.641Z,99030.53
2022-10-05T02:45:24.803Z,99023.16
2022-10-05T02:48:37.836Z,99027.72
2022-10-05T02:51:46.515Z,99029.34
2022-10-05T02:54:53.781Z,99031.03
2022-10-05T02:57:59.711Z,99033.94
2022-10-05T03:01:09.267Z,99035.50
2022-10-05T03:04:21.078Z,99036.66
2022-10-05T03:07:27.010Z,99045.78
2022-10-05T03:10:36.166Z,99048.50
2022-10-05T03:13:46.900Z,99048.41
2022-10-05T03:16:56.964Z,99039.94
2022-10-05T03:20:12.255Z,99044.59
2022-10-05T03:23:20.446Z,99040.31
2022-10-05T03:26:33.698Z,99039.47
2022-10-05T03:29:40.688Z,99035.25
2022-10-05T03:32:52.311Z,99035.88
2022-10-05T03:36:02.940Z,99022.25
2022-10-05T03:39:11.643Z,99016.72
2022-10-05T03:42:21.414Z,99012.00
2022-10-05T03:45:28.632Z,99003.84
2022-10-05T03:48:34.765Z,99006.06
2022-10-05T03:51:43.865Z,99011.63
2022-10-05T03:54:48.734Z,99012.16
2022-10-05T03:57:53.558Z,99004.00
2022-10-05T04:01:00.185Z,98996.50
2022-10-05T04:04:05.304Z,98990.63
2022-10-05T04:07:14.212Z,98989.88
2022-10-05T04:10:19.024Z,98993.41
2022-10-05T04:13:25.359Z,98984.75
2022-10-05T04:16:30.924Z,98988.13
2022-10-05T04:19:38.132Z,98990.53
2022-10-05T04:22:45.463Z,98985.88
2022-10-05T04:25:51.996Z,98993.53
2022-10-05T04:28:58.275Z,98987.47
2022-10-05T04:32:25.592Z,98986.16
2022-10-05T04:35:43.354Z,98983.72
2022-10-05T04:38:55.294Z,98982.34
2022-10-05T04:42:09.344Z,98987.34
2022-10-05T04:45:19.987Z,98994.47
2022-10-05T04:48:41.628Z,98995.84
2022-10-05T04:51:51.474Z,98995.84
2022-10-05T04:55:04.456Z,98991.31
2022-10-05T04:58:14.074Z,98999.09
2022-10-05T05:01:27.477Z,98990.75
2022-10-05T05:04:47.148Z,99005.69
2022-10-05T05:07:56.868Z,99011.19
2022-10-05T05:11:15.889Z,99017.75
2022-10-05T05:14:33.515Z,99019.78
2022-10-05T05:17:49.973Z,99017.22
2022-10-05T05:20:57.600Z,99024.72
2022-10-05T05:24:06.086Z,99028.03
2022-10-05T05:27:25.129Z,99030.81
2022-10-05T05:30:36.053Z,99033.09
2022-10-05T05:33:45.811Z,99028.91
2022-10-05T05:36:54.493Z,99037.28
2022-10-05T05:40:06.514Z,99041.09
2022-10-05T05:43:24.185Z,99038.91
2022-10-05T05:46:51.227Z,99043.09
2022-10-05T05:50:07.018Z,99047.34
2022-10-05T05:53:16.010Z,99047.84
2022-10-05T05:56:22.294Z,99055.13
2022-10-05T05:59:30.186Z,99054.25
2022-10-05T06:02:39.305Z,99047.47
2022-10-05T06:05:45.219Z,99062.59
2022-10-05T06:08:49.132Z,99070.69
2022-10-05T06:11:54.479Z,99065.63
2022-10-05T06:15:00.862Z,99069.81
2022-10-05T06:18:06.186Z,99081.13
2022-10-05T06:21:14.790Z,99082.38
2022-10-05T06:24:23.081Z,99088.66
2022-10-05T06:27:36.719Z,99096.94
2022-10-05T06:30:51.637Z,99107.22
2022-10-05T06:33:56.084Z,99101.31
2022-10-05T06:37:01.606Z,99100.03
2022-10-05T06:40:11.737Z,99105.34
2022-10-05T06:43:25.841Z,99106.25
2022-10-05T06:46:33.936Z,99111.03
2022-10-05T06:49:43.225Z,99117.91
2022-10-05T06:52:57.788Z,99120.44
2022-10-05T06:56:05.722Z,99116.41
2022-10-05T06:59:10.860Z,99112.00
2022-10-05T07:02:20.398Z,99117.03
2022-10-05T07:05:44.829Z,99115.72
2022-10-05T07:08:56.877Z,99122.13
2022-10-05T07:12:09.057Z,99128.38
2022-10-05T07:15:23.547Z,99114.31
2022-10-05T07:18:37.300Z,99115.59
2022-10-05T07:21:45.667Z,99124.97
2022-10-05T07:24:52.603Z,99120.91
2022-10-05T07:27:59.150Z,99120.53
2022-10-05T07:31:05.917Z,99127.22
2022-10-05T07:34:16.516Z,99116.97
2022-10-05T07:37:39.570Z,99122.81
2022-10-05T07:40:45.402Z,99130.88
2022-10-05T07:44:12.544Z,99128.81
2022-10-05T07:47:20.123Z,99136.63
2022-10-05T07:50:27.805Z,99139.72
2022-10-05T07:53:34.434Z,99137.19
2022-10-05T07:56:40.465Z,99138.91
2022-10-05T07:59:46.018Z,99149.47
2022-10-05T08:02:51.870Z,99150.31
2022-10-05T08:05:56.238Z,99139.91
2022-10-05T08:09:03.954Z,99148.31
2022-10-05T08:12:24.578Z,99145.59
2022-10-05T08:15:31.286Z,99142.94
2022-10-05T08:18:43.659Z,99147.94
2022-10-05T08:21:52.111Z,99142.97
2022-10-05T08:24:59.347Z,99144.28
2022-10-05T08:28:06.188Z,99142.00
2022-10-05T08:31:14.865Z,99142.81
2022-10-05T08:34:24.238Z,99134.75
2022-10-05T08:37:32.344Z,99140.78
2022-10-05T08:41:04.899Z,99136.25
2022-10-05T08:44:40.996Z,99132.53
2022-10-05T08:48:00.649Z,99132.81
2022-10-05T08:51:37.050Z,99126.34
2022-10-05T08:54:47.990Z,99131.78
2022-10-05T08:58:03.205Z,99136.53
2022-10-05T09:01:11.344Z,99121.56
2022-10-05T09:04:24.226Z,99116.16
2022-10-05T09:07:44.295Z,99123.28
2022-10-05T09:11:03.811Z,99121.81
2022-10-05T09:14:36.702Z,99123.28
2022-10-05T09:18:08.370Z,99117.50
2022-10-05T09:21:15.399Z,99114.94
2022-10-05T09:24:27.319Z,99113.38
2022-10-05T09:27:39.640Z,99109.56
2022-10-05T09:30:53.012Z,99101.19
2022-10-05T09:34:27.099Z,99098.56
2022-10-05T09:37:31.108Z,99105.22
2022-10-05T09:40:57.885Z,99095.78
2022-10-05T09:44:34.027Z,99095.31
2022-10-05T09:48:05.509Z,99084.19
2022-10-05T09:51:31.668Z,99085.66
2022-10-05T09:55:04.828Z,99089.72
2022-10-05T09:58:31.984Z,99083.72
2022-10-05T10:01:51.296Z,99074.16
2022-10-05T10:05:33.229Z,99065.78
2022-10-05T10:08:45.152Z,99064.34
2022-10-05T10:12:00.978Z,99052.91
2022-10-05T10:15:38.293Z,99048.88
2022-10-05T10:19:06.121Z,99056.53
2022-10-05T10:22:27.056Z,99040.84
2022-10-05T10:26:11.389Z,99045.69
2022-10-05T10:29:41.340Z,99037.28
2022-10-05T10:33:21.955Z,99025.84
2022-10-05T10:36:40.145Z,99026.50
2022-10-05T10:39:58.963Z,99025.28
2022-10-05T10:43:29.515Z,99021.44
2022-10-05T10:46:39.735Z,99015.81
2022-10-05T10:50:05.041Z,99002.09
2022-10-05T10:53:38.496Z,99007.25
2022-10-05T10:56:50.620Z,99004.09
2022-10-05T11:00:21.718Z,98996.47
2022-10-05T11:03:48.174Z,98994.84
2022-10-05T11:07:18.376Z,98991.88
2022-10-05T11:10:33.714Z,98992.81
2022-10-05T11:13:47.800Z,98988.44
2022-10-05T11:17:22.229Z,98990.34
2022-10-05T11:20:48.851Z,98987.66
2022-10-05T11:24:23.008Z,98985.75
2022-10-05T11:27:42.079Z,98974.63
2022-10-05T11:31:10.928Z,98968.69
2022-10-05T11:34:46.968Z,98964.06
2022-10-05T11:38:22.491Z,98957.75
2022-10-05T11:41:41.394Z,98960.94
2022-10-05T11:45:11.740Z,98962.94
2022-10-05T11:48:32.477Z,98954.97
2022-10-05T11:51:41.356Z,98950.63
2022-10-05T11:55:14.855Z,98943.03
2022-10-05T11:58:23.168Z,98940.69
2022-10-05T12:01:30.886Z,98943.88
2022-10-05T12:04:39.295Z,98943.47
2022-10-05T12:07:47.547Z,98941.44
2022-10-05T12:10:58.957Z,98935.84
2022-10-05T12:14:05.606Z,98930.72
2022-10-05T12:17:17.414Z,98936.22
2022-10-05T12:20:22.964Z,98933.81
2022-10-05T12:23:33.709Z,98929.34
2022-10-05T12:26:40.711Z,98931.59
2022-10-05T12:29:45.925Z,98920.34
2022-10-05T12:33:00.913Z,98919.94
2022-10-05T12:36:09.360Z,98907.69
2022-10-05T12:39:19.951Z,98906.00
2022-10-05T12:42:29.261Z,98900.84
2022-10-05T12:45:43.558Z,98895.56
2022-10-05T12:49:21.396Z,98897.72
2022-10-05T12:52:33.989Z,98901.28
2022-10-05T12:55:42.330Z,98890.16
2022-10-05T12:58:53.477Z,98886.50
2022-10-05T13:02:00.168Z,98894.53
2022-10-05T13:05:12.668Z,98886.56
2022-10-05T13:08:22.526Z,98875.28
2022-10-05T13:11:31.466Z,98871.69
2022-10-05T13:14:46.503Z,98873.00
2022-10-05T13:17:56.902Z,98864.94
2022-10-05T13:21:05.311Z,98861.19
2022-10-05T13:24:13.974Z,98860.84
2022-10-05T13:27:22.039Z,98869.09
2022-10-05T13:30:24.854Z,98867.19
2022-10-05T13:33:48.513Z,98864.53
2022-10-05T13:37:03.499Z,98861.63
2022-10-05T13:40:18.655Z,98869.09
2022-10-05T13:43:27.499Z,98863.13
2022-10-05T13:46:37.881Z,98861.88
2022-10-05T13:52:57.948Z,98859.03
2022-10-05T13:56:02.036Z,98854.69
2022-10-05T13:59:15.111Z,98853.69
2022-10-05T14:02:22.357Z,98855.66
2022-10-05T14:05:26.893Z,98847.13
2022-10-05T14:08:32.719Z,98844.44
2022-10-05T14:11:36.525Z,98842.50
2022-10-05T14:14:47.328Z,98841.69
2022-10-05T14:17:51.350Z,98835.19
2022-10-05T14:21:05.863Z,98838.94
2022-10-05T14:27:51.511Z,98832.91
2022-10-05T14:31:00.471Z,98836.97
2022-10-05T14:34:37.337Z,98850.91
2022-10-05T14:37:47.360Z,98850.25
2022-10-05T14:41:07.275Z,98839.00
2022-10-05T14:44:27.941Z,98840.22
2022-10-05T14:47:34.328Z,98845.13
2022-10-05T14:50:52.291Z,98848.63
2022-10-05T14:53:58.745Z,98841.72
2022-10-05T14:57:11.331Z,98830.06
2022-10-05T15:00:16.636Z,98838.34
2022-10-05T15:03:33.229Z,98840.47
2022-10-05T15:06:39.322Z,98834.84
2022-10-05T15:09:51.037Z,98828.22
2022-10-05T15:12:55.387Z,98829.75
2022-10-05T15:16:01.559Z,98836.06
2022-10-05T15:19:18.037Z,98832.88
2022-10-05T15:22:29.129Z,98849.06
2022-10-05T15:25:37.181Z,98844.34
2022-10-05T15:28:48.322Z,98841.97
2022-10-05T15:31:56.066Z,98842.16
2022-10-05T15:35:15.127Z,98832.88
2022-10-05T15:38:21.944Z,98826.63
2022-10-05T15:41:26.095Z,98832.09
2022-10-05T15:44:39.911Z,98838.06
2022-10-05T15:47:49.147Z,98821.47
2022-10-05T15:50:55.852Z,98815.63
2022-10-05T15:54:20.782Z,98833.28
2022-10-05T15:57:27.085Z,98825.38
2022-10-05T16:00:32.756Z,98836.91
2022-10-05T16:03:44.992Z,98840.97
2022-10-05T16:07:08.538Z,98844.44
2022-10-05T16:10:21.394Z,98846.03
2022-10-05T16:13:34.097Z,98849.47
2022-10-05T16:16:42.698Z,98854.03
2022-10-05T16:19:49.742Z,98856.16
2022-10-05T16:22:59.773Z,98855.44
2022-10-05T16:26:13.302Z,98859.06
2022-10-05T16:29:21.193Z,98860.66
2022-10-05T16:32:30.297Z,98867.41
2022-10-05T16:35:38.681Z,98868.88
2022-10-05T16:38:47.459Z,98869.16
2022-10-05T16:41:56.641Z,98874.16
2022-10-05T16:45:06.879Z,98881.59
2022-10-05T16:48:13.710Z,98886.09
2022-10-05T16:51:26.690Z,98884.78
2022-10-05T16:54:33.831Z,98893.28
2022-10-05T16:57:40.550Z,98892.44
2022-10-05T17:00:53.036Z,98895.78
2022-10-05T17:04:07.258Z,98898.44
2022-10-05T17:07:25.240Z,98901.88
2022-10-05T17:10:49.380Z,98904.91
2022-10-05T17:14:13.919Z,98904.31
2022-10-05T17:17:32.621Z,98912.50
2022-10-05T17:20:43.536Z,98909.25
2022-10-05T17:23:54.670Z,98919.28
2022-10-05T17:27:15.965Z,98925.53
2022-10-05T17:30:37.526Z,98920.31
2022-10-05T17:34:26.364Z,98923.44
2022-10-05T17:37:36.651Z,98929.78
2022-10-05T17:40:40.375Z,98932.28
2022-10-05T17:44:19.122Z,98943.44
2022-10-05T17:48:03.700Z,98941.59
2022-10-05T17:51:34.745Z,98933.06
2022-10-05T17:55:13.496Z,98931.84
2022-10-05T17:59:02.193Z,98938.28
2022-10-05T18:02:21.760Z,98941.31
2022-10-05T18:05:27.863Z,98939.84
2022-10-05T18:08:38.449Z,98948.53
2022-10-05T18:11:42.985Z,98955.75
2022-10-05T18:14:55.995Z,98953.97
2022-10-05T18:18:21.948Z,98959.53
2022-10-05T18:21:35.550Z,98966.59
2022-10-05T18:24:46.878Z,98965.69
2022-10-05T18:28:16.587Z,98974.22
2022-10-05T18:31:27.922Z,98972.88
2022-10-05T18:34:34.627Z,98973.34
2022-10-05T18:37:46.960Z,98980.94
2022-10-05T18:40:54.538Z,98975.53
2022-10-05T18:44:08.945Z,98985.56
2022-10-05T18:47:17.601Z,98984.13
2022-10-05T18:50:28.098Z,98986.31
2022-10-05T18:53:38.652Z,98990.66
2022-10-05T18:56:45.259Z,98987.06
2022-10-05T18:59:52.326Z,98983.38
2022-10-05T19:02:59.288Z,98993.13
2022-10-05T19:06:13.431Z,98997.34
2022-10-05T19:09:25.203Z,99009.09
2022-10-05T19:12:41.397Z,99006.09
2022-10-05T19:15:51.604Z,99018.47
2022-10-05T19:19:04.971Z,99020.88
2022-10-05T19:22:17.180Z,99015.41
2022-10-05T19:25:27.939Z,99037.03
2022-10-05T19:28:35.902Z,99046.50
2022-10-05T19:31:41.783Z,99050.38
2022-10-05T19:34:52.990Z,99057.38
2022-10-05T19:38:11.769Z,99056.66
2022-10-05T19:41:19.417Z,99064.88
2022-10-05T19:44:32.509Z,99074.06
2022-10-05T19:47:44.687Z,99084.59
2022-10-05T19:50:54.546Z,99085.13
2022-10-05T19:54:01.998Z,99085.66
2022-10-05T19:57:16.903Z,99102.28
2022-10-05T20:00:24.657Z,99105.19
2022-10-05T20:03:29.743Z,99113.78
2022-10-05T20:06:32.555Z,99118.06
2022-10-05T20:13:04.915Z,99132.78
2022-10-05T20:16:27.222Z,99135.84
2022-10-05T20:19:54.550Z,99128.50
2022-10-05T20:23:22.100Z,99141.00
2022-10-05T20:27:01.225Z,99146.38
2022-10-05T20:30:06.379Z,99149.81
2022-10-05T20:33:14.656Z,99154.53
2022-10-05T20:36:17.363Z,99164.19
2022-10-05T20:39:21.464Z,99157.16
2022-10-05T20:42:24.353Z,99164.75
2022-10-05T20:45:28.505Z,99168.66
2022-10-05T20:48:31.369Z,99168.09
2022-10-05T20:51:34.259Z,99175.44
2022-10-05T20:54:37.643Z,99179.34
2022-10-05T20:57:42.201Z,99186.72
2022-10-05T21:01:04.267Z,99191.06
2022-10-05T21:04:06.895Z,99192.56
2022-10-05T21:07:10.230Z,99201.19
2022-10-05T21:10:14.215Z,99205.06
2022-10-05T21:13:17.621Z,99209.44
2022-10-05T21:16:23.038Z,99206.34
2022-10-05T21:19:26.095Z,99208.19
2022-10-05T21:22:28.898Z,99211.84
2022-10-05T21:25:31.806Z,99218.19
2022-10-05T21:28:34.965Z,99218.06
2022-10-05T21:31:39.291Z,99225.88
2022-10-05T21:34:42.796Z,99229.00
2022-10-05T21:37:45.161Z,99225.53
2022-10-05T21:40:48.068Z,99241.16
2022-10-05T21:43:50.773Z,99233.97
2022-10-05T21:46:56.117Z,99248.19
2022-10-05T21:50:00.372Z,99243.03
2022-10-05T21:53:04.607Z,99250.03
2022-10-05T21:56:10.644Z,99245.66
2022-10-05T21:59:14.800Z,99244.41
2022-10-05T22:02:18.830Z,99242.09
2022-10-05T22:05:21.732Z,99252.66
2022-10-05T22:08:27.184Z,99257.25
2022-10-05T22:11:30.198Z,99255.78
2022-10-05T22:14:32.868Z,99256.56
2022-10-05T22:17:37.180Z,99256.44
2022-10-05T22:20:40.090Z,99257.72
2022-10-05T22:23:44.581Z,99266.22
2022-10-05T22:26:48.401Z,99270.00
2022-10-05T22:29:51.944Z,99268.50
2022-10-05T22:32:55.907Z,99275.09
2022-10-05T22:35:59.699Z,99275.53
2022-10-05T22:39:02.711Z,99274.38
2022-10-05T22:42:05.818Z,99281.72
2022-10-05T22:45:09.731Z,99286.22
2022-10-05T22:48:13.992Z,99285.75
2022-10-05T22:51:16.647Z,99277.00
2022-10-05T22:54:19.409Z,99278.69
2022-10-05T22:57:22.163Z,99278.47
2022-10-05T23:00:40.452Z,99285.91
2022-10-05T23:03:49.014Z,99291.22
2022-10-05T23:06:51.782Z,99292.34
2022-10-05T23:09:54.572Z,99295.31
2022-10-05T23:13:00.822Z,99288.22
2022-10-05T23:16:08.441Z,99298.28
2022-10-05T23:19:12.923Z,99303.38
2022-10-05T23:22:15.571Z,99300.06
2022-10-05T23:25:18.555Z,99298.16
2022-10-05T23:28:21.751Z,99308.13
2022-10-05T23:31:26.500Z,99301.13
2022-10-05T23:34:30.556Z,99300.53
2022-10-05T23:37:33.570Z,99294.56
2022-10-05T23:40:36.220Z,99298.59
2022-10-05T23:43:38.855Z,99301.69
2022-10-05T23:46:41.635Z,99313.03
2022-10-05T23:49:45.681Z,99318.09
2022-10-05T23:52:48.458Z,99321.84
2022-10-05T23:55:51.692Z,99321.50
2022-10-05T23:58:54.538Z,99327.91
